sensor_id;sensor_type;location;lat;lon;timestamp;temperature;humidity
65687;HTU21D;52406;45.078;38.986;2022-07-29T00:01:01;21.27;70.71
65687;HTU21D;52406;45.078;38.986;2022-07-29T00:03:28;21.25;70.77
65687;HTU21D;52406;45.078;38.986;2022-07-29T00:05:54;21.23;70.84
65687;HTU21D;52406;45.078;38.986;2022-07-29T00:08:21;21.22;70.90
65687;HTU21D;52406;45.078;38.986;2022-07-29T00:10:48;21.21;70.96
65687;HTU21D;52406;45.078;38.986;2022-07-29T00:13:14;21.21;71.01
65687;HTU21D;52406;45.078;38.986;2022-07-29T00:15:41;21.20;71.11
65687;HTU21D;52406;45.078;38.986;2022-07-29T00:18:09;21.20;71.13
65687;HTU21D;52406;45.078;38.986;2022-07-29T00:20:35;21.18;71.18
65687;HTU21D;52406;45.078;38.986;2022-07-29T00:23:05;21.17;71.26
65687;HTU21D;52406;45.078;38.986;2022-07-29T00:25:32;21.16;71.29
65687;HTU21D;52406;45.078;38.986;2022-07-29T00:27:59;21.14;71.39
65687;HTU21D;52406;45.078;38.986;2022-07-29T00:30:28;21.15;71.45
65687;HTU21D;52406;45.078;38.986;2022-07-29T00:32:55;21.14;71.51
65687;HTU21D;52406;45.078;38.986;2022-07-29T00:35:21;21.13;71.55
65687;HTU21D;52406;45.078;38.986;2022-07-29T00:38:14;21.10;71.63
65687;HTU21D;52406;45.078;38.986;2022-07-29T00:40:41;21.11;71.68
65687;HTU21D;52406;45.078;38.986;2022-07-29T00:43:12;21.09;71.74
65687;HTU21D;52406;45.078;38.986;2022-07-29T00:45:40;21.09;71.84
65687;HTU21D;52406;45.078;38.986;2022-07-29T00:48:08;21.08;71.89
65687;HTU21D;52406;45.078;38.986;2022-07-29T00:50:36;21.07;72.00
65687;HTU21D;52406;45.078;38.986;2022-07-29T00:53:06;21.09;72.02
65687;HTU21D;52406;45.078;38.986;2022-07-29T00:55:36;21.08;72.03
65687;HTU21D;52406;45.078;38.986;2022-07-29T00:58:03;21.07;72.09
65687;HTU21D;52406;45.078;38.986;2022-07-29T01:00:33;21.04;72.19
65687;HTU21D;52406;45.078;38.986;2022-07-29T01:03:00;21.03;72.22
65687;HTU21D;52406;45.078;38.986;2022-07-29T01:05:28;21.00;72.32
65687;HTU21D;52406;45.078;38.986;2022-07-29T01:07:57;20.96;72.44
65687;HTU21D;52406;45.078;38.986;2022-07-29T01:10:24;20.93;72.53
65687;HTU21D;52406;45.078;38.986;2022-07-29T01:12:52;20.91;72.56
65687;HTU21D;52406;45.078;38.986;2022-07-29T01:15:20;20.88;72.64
65687;HTU21D;52406;45.078;38.986;2022-07-29T01:18:13;20.84;72.68
65687;HTU21D;52406;45.078;38.986;2022-07-29T01:23:59;20.78;72.67
65687;HTU21D;52406;45.078;38.986;2022-07-29T01:26:34;20.76;72.71
65687;HTU21D;52406;45.078;38.986;2022-07-29T01:32:12;20.78;72.80
65687;HTU21D;52406;45.078;38.986;2022-07-29T01:34:54;20.74;72.85
65687;HTU21D;52406;45.078;38.986;2022-07-29T01:39:57;20.71;72.99
65687;HTU21D;52406;45.078;38.986;2022-07-29T01:42:43;20.71;73.05
65687;HTU21D;52406;45.078;38.986;2022-07-29T01:45:26;20.72;73.02
65687;HTU21D;52406;45.078;38.986;2022-07-29T01:48:15;20.69;73.06
65687;HTU21D;52406;45.078;38.986;2022-07-29T01:50:50;20.66;73.12
65687;HTU21D;52406;45.078;38.986;2022-07-29T01:53:41;20.62;73.21
65687;HTU21D;52406;45.078;38.986;2022-07-29T01:56:10;20.58;73.31
65687;HTU21D;52406;45.078;38.986;2022-07-29T01:58:40;20.59;73.40
65687;HTU21D;52406;45.078;38.986;2022-07-29T02:01:09;20.58;73.48
65687;HTU21D;52406;45.078;38.986;2022-07-29T02:03:43;20.57;73.53
65687;HTU21D;52406;45.078;38.986;2022-07-29T02:06:11;20.55;73.61
65687;HTU21D;52406;45.078;38.986;2022-07-29T02:08:39;20.54;73.61
65687;HTU21D;52406;45.078;38.986;2022-07-29T02:11:07;20.53;73.70
65687;HTU21D;52406;45.078;38.986;2022-07-29T02:13:36;20.51;73.75
65687;HTU21D;52406;45.078;38.986;2022-07-29T02:16:06;20.51;73.80
65687;HTU21D;52406;45.078;38.986;2022-07-29T02:18:37;20.49;73.83
65687;HTU21D;52406;45.078;38.986;2022-07-29T02:21:05;20.49;73.86
65687;HTU21D;52406;45.078;38.986;2022-07-29T02:23:35;20.48;73.91
65687;HTU21D;52406;45.078;38.986;2022-07-29T02:26:08;20.48;73.96
65687;HTU21D;52406;45.078;38.986;2022-07-29T02:28:40;20.48;74.00
65687;HTU21D;52406;45.078;38.986;2022-07-29T02:31:09;20.48;74.02
65687;HTU21D;52406;45.078;38.986;2022-07-29T02:33:37;20.50;74.03
65687;HTU21D;52406;45.078;38.986;2022-07-29T02:36:05;20.50;74.12
65687;HTU21D;52406;45.078;38.986;2022-07-29T02:38:32;20.53;74.15
65687;HTU21D;52406;45.078;38.986;2022-07-29T02:41:43;20.53;74.12
65687;HTU21D;52406;45.078;38.986;2022-07-29T02:44:15;20.54;74.13
65687;HTU21D;52406;45.078;38.986;2022-07-29T02:47:04;20.53;74.17
65687;HTU21D;52406;45.078;38.986;2022-07-29T02:49:57;20.59;74.08
65687;HTU21D;52406;45.078;38.986;2022-07-29T02:55:26;20.65;74.06
65687;HTU21D;52406;45.078;38.986;2022-07-29T02:58:05;20.71;73.98
65687;HTU21D;52406;45.078;38.986;2022-07-29T03:00:37;20.74;74.05
65687;HTU21D;52406;45.078;38.986;2022-07-29T03:03:11;20.79;74.09
65687;HTU21D;52406;45.078;38.986;2022-07-29T03:05:39;20.86;74.13
65687;HTU21D;52406;45.078;38.986;2022-07-29T03:08:08;20.92;74.14
65687;HTU21D;52406;45.078;38.986;2022-07-29T03:10:39;21.00;74.10
65687;HTU21D;52406;45.078;38.986;2022-07-29T03:13:09;21.08;74.04
65687;HTU21D;52406;45.078;38.986;2022-07-29T03:15:37;21.16;74.06
65687;HTU21D;52406;45.078;38.986;2022-07-29T03:18:03;21.25;74.01
65687;HTU21D;52406;45.078;38.986;2022-07-29T03:20:31;21.36;73.93
65687;HTU21D;52406;45.078;38.986;2022-07-29T03:22:58;21.47;73.79
65687;HTU21D;52406;45.078;38.986;2022-07-29T03:25:25;21.55;73.73
65687;HTU21D;52406;45.078;38.986;2022-07-29T03:27:53;21.65;73.72
65687;HTU21D;52406;45.078;38.986;2022-07-29T03:30:19;21.74;73.63
65687;HTU21D;52406;45.078;38.986;2022-07-29T03:32:49;21.87;73.49
65687;HTU21D;52406;45.078;38.986;2022-07-29T03:35:15;21.98;73.26
65687;HTU21D;52406;45.078;38.986;2022-07-29T03:37:49;22.13;72.98
65687;HTU21D;52406;45.078;38.986;2022-07-29T03:40:33;22.28;72.68
65687;HTU21D;52406;45.078;38.986;2022-07-29T03:43:01;22.44;72.37
65687;HTU21D;52406;45.078;38.986;2022-07-29T03:45:30;22.62;72.15
65687;HTU21D;52406;45.078;38.986;2022-07-29T03:47:59;22.78;71.85
65687;HTU21D;52406;45.078;38.986;2022-07-29T03:50:29;22.96;71.51
65687;HTU21D;52406;45.078;38.986;2022-07-29T03:52:57;23.14;71.16
65687;HTU21D;52406;45.078;38.986;2022-07-29T03:55:25;23.34;70.82
65687;HTU21D;52406;45.078;38.986;2022-07-29T03:57:53;23.55;70.40
65687;HTU21D;52406;45.078;38.986;2022-07-29T04:00:24;23.74;70.01
65687;HTU21D;52406;45.078;38.986;2022-07-29T04:02:52;23.96;69.57
65687;HTU21D;52406;45.078;38.986;2022-07-29T04:05:19;24.21;69.04
65687;HTU21D;52406;45.078;38.986;2022-07-29T04:07:50;24.43;68.58
65687;HTU21D;52406;45.078;38.986;2022-07-29T04:10:19;24.64;68.20
65687;HTU21D;52406;45.078;38.986;2022-07-29T04:12:46;24.84;67.81
65687;HTU21D;52406;45.078;38.986;2022-07-29T04:15:13;25.05;67.49
65687;HTU21D;52406;45.078;38.986;2022-07-29T04:17:39;25.29;67.07
65687;HTU21D;52406;45.078;38.986;2022-07-29T04:20:06;25.52;66.62
65687;HTU21D;52406;45.078;38.986;2022-07-29T04:22:33;25.75;66.30
65687;HTU21D;52406;45.078;38.986;2022-07-29T04:25:00;25.94;65.98
65687;HTU21D;52406;45.078;38.986;2022-07-29T04:27:29;26.15;65.66
65687;HTU21D;52406;45.078;38.986;2022-07-29T04:29:56;26.36;65.34
65687;HTU21D;52406;45.078;38.986;2022-07-29T04:32:25;26.60;64.90
65687;HTU21D;52406;45.078;38.986;2022-07-29T04:34:52;26.81;64.53
65687;HTU21D;52406;45.078;38.986;2022-07-29T04:37:19;27.00;64.14
65687;HTU21D;52406;45.078;38.986;2022-07-29T04:39:45;27.23;63.68
65687;HTU21D;52406;45.078;38.986;2022-07-29T04:42:12;27.40;63.28
65687;HTU21D;52406;45.078;38.986;2022-07-29T04:44:39;27.57;62.86
65687;HTU21D;52406;45.078;38.986;2022-07-29T04:47:08;27.82;62.53
65687;HTU21D;52406;45.078;38.986;2022-07-29T04:49:39;28.08;61.97
65687;HTU21D;52406;45.078;38.986;2022-07-29T04:52:06;28.26;61.47
65687;HTU21D;52406;45.078;38.986;2022-07-29T04:54:38;28.41;61.15
65687;HTU21D;52406;45.078;38.986;2022-07-29T04:57:04;28.56;60.65
65687;HTU21D;52406;45.078;38.986;2022-07-29T04:59:31;28.60;60.57
65687;HTU21D;52406;45.078;38.986;2022-07-29T05:01:58;28.77;60.19
65687;HTU21D;52406;45.078;38.986;2022-07-29T05:04:24;28.95;59.73
65687;HTU21D;52406;45.078;38.986;2022-07-29T05:06:51;29.15;59.32
65687;HTU21D;52406;45.078;38.986;2022-07-29T05:09:19;29.48;58.69
65687;HTU21D;52406;45.078;38.986;2022-07-29T05:11:45;29.77;58.07
65687;HTU21D;52406;45.078;38.986;2022-07-29T05:14:12;30.07;57.57
65687;HTU21D;52406;45.078;38.986;2022-07-29T05:16:39;30.34;57.04
65687;HTU21D;52406;45.078;38.986;2022-07-29T05:19:07;30.45;56.77
65687;HTU21D;52406;45.078;38.986;2022-07-29T05:21:34;30.69;56.31
65687;HTU21D;52406;45.078;38.986;2022-07-29T05:24:03;30.89;55.64
65687;HTU21D;52406;45.078;38.986;2022-07-29T05:26:30;31.06;55.40
65687;HTU21D;52406;45.078;38.986;2022-07-29T05:28:56;31.27;55.01
65687;HTU21D;52406;45.078;38.986;2022-07-29T05:31:23;31.48;54.59
65687;HTU21D;52406;45.078;38.986;2022-07-29T05:33:50;31.71;54.02
65687;HTU21D;52406;45.078;38.986;2022-07-29T05:36:17;31.97;53.42
65687;HTU21D;52406;45.078;38.986;2022-07-29T05:38:44;32.23;52.96
65687;HTU21D;52406;45.078;38.986;2022-07-29T05:41:12;32.54;52.40
65687;HTU21D;52406;45.078;38.986;2022-07-29T05:43:39;32.74;51.85
65687;HTU21D;52406;45.078;38.986;2022-07-29T05:46:09;32.75;51.60
65687;HTU21D;52406;45.078;38.986;2022-07-29T05:48:35;32.75;51.33
65687;HTU21D;52406;45.078;38.986;2022-07-29T05:51:08;32.77;50.82
65687;HTU21D;52406;45.078;38.986;2022-07-29T05:53:35;32.79;50.66
65687;HTU21D;52406;45.078;38.986;2022-07-29T05:56:06;32.96;50.24
65687;HTU21D;52406;45.078;38.986;2022-07-29T05:58:36;33.17;49.89
65687;HTU21D;52406;45.078;38.986;2022-07-29T06:01:03;33.25;49.47
65687;HTU21D;52406;45.078;38.986;2022-07-29T06:03:30;33.37;49.47
65687;HTU21D;52406;45.078;38.986;2022-07-29T06:05:56;33.73;48.93
65687;HTU21D;52406;45.078;38.986;2022-07-29T06:08:23;33.89;48.31
65687;HTU21D;52406;45.078;38.986;2022-07-29T06:10:50;34.07;47.72
65687;HTU21D;52406;45.078;38.986;2022-07-29T06:13:16;33.83;47.90
65687;HTU21D;52406;45.078;38.986;2022-07-29T06:15:43;33.86;48.02
65687;HTU21D;52406;45.078;38.986;2022-07-29T06:18:10;34.14;47.59
65687;HTU21D;52406;45.078;38.986;2022-07-29T06:20:39;34.41;46.85
65687;HTU21D;52406;45.078;38.986;2022-07-29T06:23:06;34.37;46.71
65687;HTU21D;52406;45.078;38.986;2022-07-29T06:25:37;34.60;46.48
65687;HTU21D;52406;45.078;38.986;2022-07-29T06:28:05;34.78;46.24
65687;HTU21D;52406;45.078;38.986;2022-07-29T06:30:32;35.00;46.06
65687;HTU21D;52406;45.078;38.986;2022-07-29T06:32:59;35.23;45.67
65687;HTU21D;52406;45.078;38.986;2022-07-29T06:35:28;35.49;45.26
65687;HTU21D;52406;45.078;38.986;2022-07-29T06:37:56;35.81;44.77
65687;HTU21D;52406;45.078;38.986;2022-07-29T06:40:22;36.02;44.25
65687;HTU21D;52406;45.078;38.986;2022-07-29T06:43:07;36.36;43.86
65687;HTU21D;52406;45.078;38.986;2022-07-29T06:45:34;36.57;43.53
65687;HTU21D;52406;45.078;38.986;2022-07-29T06:48:04;36.85;42.66
65687;HTU21D;52406;45.078;38.986;2022-07-29T06:50:31;36.93;42.40
65687;HTU21D;52406;45.078;38.986;2022-07-29T06:52:58;36.98;42.18
65687;HTU21D;52406;45.078;38.986;2022-07-29T06:55:25;37.25;41.96
65687;HTU21D;52406;45.078;38.986;2022-07-29T06:57:52;37.20;42.00
65687;HTU21D;52406;45.078;38.986;2022-07-29T07:00:19;37.33;41.94
65687;HTU21D;52406;45.078;38.986;2022-07-29T07:02:46;37.51;41.52
65687;HTU21D;52406;45.078;38.986;2022-07-29T07:05:12;37.75;41.08
65687;HTU21D;52406;45.078;38.986;2022-07-29T07:07:42;37.88;40.79
65687;HTU21D;52406;45.078;38.986;2022-07-29T07:10:09;38.02;40.46
65687;HTU21D;52406;45.078;38.986;2022-07-29T07:12:38;38.07;40.50
65687;HTU21D;52406;45.078;38.986;2022-07-29T07:15:08;38.03;40.61
65687;HTU21D;52406;45.078;38.986;2022-07-29T07:17:38;38.00;40.82
65687;HTU21D;52406;45.078;38.986;2022-07-29T07:20:05;38.16;40.71
65687;HTU21D;52406;45.078;38.986;2022-07-29T07:22:32;38.38;40.17
65687;HTU21D;52406;45.078;38.986;2022-07-29T07:24:59;38.61;39.64
65687;HTU21D;52406;45.078;38.986;2022-07-29T07:27:27;38.74;39.12
65687;HTU21D;52406;45.078;38.986;2022-07-29T07:29:54;38.76;38.97
65687;HTU21D;52406;45.078;38.986;2022-07-29T07:32:21;38.90;38.53
65687;HTU21D;52406;45.078;38.986;2022-07-29T07:34:47;38.93;38.43
65687;HTU21D;52406;45.078;38.986;2022-07-29T07:37:14;38.91;38.36
65687;HTU21D;52406;45.078;38.986;2022-07-29T07:39:41;38.90;38.14
65687;HTU21D;52406;45.078;38.986;2022-07-29T07:42:10;39.18;37.69
65687;HTU21D;52406;45.078;38.986;2022-07-29T07:44:39;39.38;37.13
65687;HTU21D;52406;45.078;38.986;2022-07-29T07:47:09;39.27;37.18
65687;HTU21D;52406;45.078;38.986;2022-07-29T07:49:35;39.11;37.40
65687;HTU21D;52406;45.078;38.986;2022-07-29T07:52:02;39.17;37.08
65687;HTU21D;52406;45.078;38.986;2022-07-29T07:54:30;39.22;37.24
65687;HTU21D;52406;45.078;38.986;2022-07-29T07:56:57;39.56;36.85
65687;HTU21D;52406;45.078;38.986;2022-07-29T07:59:24;39.83;36.37
65687;HTU21D;52406;45.078;38.986;2022-07-29T08:01:51;40.07;35.56
65687;HTU21D;52406;45.078;38.986;2022-07-29T08:04:18;39.80;36.07
65687;HTU21D;52406;45.078;38.986;2022-07-29T08:06:48;39.71;36.18
65687;HTU21D;52406;45.078;38.986;2022-07-29T08:09:15;40.01;35.69
65687;HTU21D;52406;45.078;38.986;2022-07-29T08:11:44;40.28;35.46
65687;HTU21D;52406;45.078;38.986;2022-07-29T08:14:11;40.32;35.21
65687;HTU21D;52406;45.078;38.986;2022-07-29T08:16:37;40.24;35.21
65687;HTU21D;52406;45.078;38.986;2022-07-29T08:19:24;40.54;34.54
65687;HTU21D;52406;45.078;38.986;2022-07-29T08:21:52;40.51;34.31
65687;HTU21D;52406;45.078;38.986;2022-07-29T08:24:20;40.55;34.35
65687;HTU21D;52406;45.078;38.986;2022-07-29T08:27:05;40.74;34.11
65687;HTU21D;52406;45.078;38.986;2022-07-29T08:29:32;40.76;34.00
65687;HTU21D;52406;45.078;38.986;2022-07-29T08:31:59;40.26;34.47
65687;HTU21D;52406;45.078;38.986;2022-07-29T08:34:25;39.70;35.38
65687;HTU21D;52406;45.078;38.986;2022-07-29T08:36:52;39.74;35.21
65687;HTU21D;52406;45.078;38.986;2022-07-29T08:39:19;39.86;35.02
65687;HTU21D;52406;45.078;38.986;2022-07-29T08:41:46;39.80;35.11
65687;HTU21D;52406;45.078;38.986;2022-07-29T08:44:15;40.15;34.70
65687;HTU21D;52406;45.078;38.986;2022-07-29T08:46:43;40.56;34.19
65687;HTU21D;52406;45.078;38.986;2022-07-29T08:49:10;40.83;33.92
65687;HTU21D;52406;45.078;38.986;2022-07-29T08:51:39;40.63;33.97
65687;HTU21D;52406;45.078;38.986;2022-07-29T08:54:08;40.35;34.24
65687;HTU21D;52406;45.078;38.986;2022-07-29T08:56:36;40.22;34.44
65687;HTU21D;52406;45.078;38.986;2022-07-29T08:59:13;40.35;34.46
65687;HTU21D;52406;45.078;38.986;2022-07-29T09:01:40;40.30;34.20
65687;HTU21D;52406;45.078;38.986;2022-07-29T09:04:11;40.23;34.36
65687;HTU21D;52406;45.078;38.986;2022-07-29T09:06:44;40.31;34.09
65687;HTU21D;52406;45.078;38.986;2022-07-29T09:09:12;40.40;33.95
65687;HTU21D;52406;45.078;38.986;2022-07-29T09:11:46;40.28;33.68
65687;HTU21D;52406;45.078;38.986;2022-07-29T09:14:14;40.41;33.83
65687;HTU21D;52406;45.078;38.986;2022-07-29T09:16:49;40.96;33.06
65687;HTU21D;52406;45.078;38.986;2022-07-29T09:19:29;40.97;32.93
65687;HTU21D;52406;45.078;38.986;2022-07-29T09:22:00;41.16;32.76
65687;HTU21D;52406;45.078;38.986;2022-07-29T09:24:40;41.57;32.63
65687;HTU21D;52406;45.078;38.986;2022-07-29T09:27:21;41.62;32.12
65687;HTU21D;52406;45.078;38.986;2022-07-29T09:32:30;41.24;32.48
65687;HTU21D;52406;45.078;38.986;2022-07-29T09:35:19;41.65;32.30
65687;HTU21D;52406;45.078;38.986;2022-07-29T09:37:47;42.01;31.50
65687;HTU21D;52406;45.078;38.986;2022-07-29T09:40:16;42.25;31.27
65687;HTU21D;52406;45.078;38.986;2022-07-29T09:42:45;42.37;30.96
65687;HTU21D;52406;45.078;38.986;2022-07-29T09:45:13;42.22;31.20
65687;HTU21D;52406;45.078;38.986;2022-07-29T09:47:52;42.14;31.68
65687;HTU21D;52406;45.078;38.986;2022-07-29T09:50:20;42.33;31.09
65687;HTU21D;52406;45.078;38.986;2022-07-29T09:52:52;42.57;30.84
65687;HTU21D;52406;45.078;38.986;2022-07-29T09:55:21;42.78;30.40
65687;HTU21D;52406;45.078;38.986;2022-07-29T09:57:52;42.84;30.12
65687;HTU21D;52406;45.078;38.986;2022-07-29T10:00:20;42.61;30.29
65687;HTU21D;52406;45.078;38.986;2022-07-29T10:02:49;42.49;30.48
65687;HTU21D;52406;45.078;38.986;2022-07-29T10:05:25;42.37;30.89
65687;HTU21D;52406;45.078;38.986;2022-07-29T10:07:57;42.45;30.79
65687;HTU21D;52406;45.078;38.986;2022-07-29T10:10:31;42.52;30.88
65687;HTU21D;52406;45.078;38.986;2022-07-29T10:13:07;42.96;30.31
65687;HTU21D;52406;45.078;38.986;2022-07-29T10:15:36;43.08;30.22
65687;HTU21D;52406;45.078;38.986;2022-07-29T10:18:06;43.20;29.84
65687;HTU21D;52406;45.078;38.986;2022-07-29T10:20:34;42.85;29.77
65687;HTU21D;52406;45.078;38.986;2022-07-29T10:23:01;42.69;29.95
65687;HTU21D;52406;45.078;38.986;2022-07-29T10:25:27;42.78;29.59
65687;HTU21D;52406;45.078;38.986;2022-07-29T10:27:55;42.96;29.13
65687;HTU21D;52406;45.078;38.986;2022-07-29T10:30:23;43.10;28.87
65687;HTU21D;52406;45.078;38.986;2022-07-29T10:44:02;42.39;29.35
65687;HTU21D;52406;45.078;38.986;2022-07-29T10:46:35;42.37;28.97
65687;HTU21D;52406;45.078;38.986;2022-07-29T10:49:11;42.08;28.84
65687;HTU21D;52406;45.078;38.986;2022-07-29T10:59:45;41.55;29.53
65687;HTU21D;52406;45.078;38.986;2022-07-29T11:05:15;41.94;29.18
65687;HTU21D;52406;45.078;38.986;2022-07-29T11:08:25;41.98;29.00
65687;HTU21D;52406;45.078;38.986;2022-07-29T11:11:30;41.49;29.21
65687;HTU21D;52406;45.078;38.986;2022-07-29T11:16:10;41.32;29.85
65687;HTU21D;52406;45.078;38.986;2022-07-29T11:19:01;41.59;29.68
65687;HTU21D;52406;45.078;38.986;2022-07-29T11:21:36;41.70;29.69
65687;HTU21D;52406;45.078;38.986;2022-07-29T11:24:26;41.95;29.45
65687;HTU21D;52406;45.078;38.986;2022-07-29T11:27:15;42.32;29.24
65687;HTU21D;52406;45.078;38.986;2022-07-29T11:29:58;42.62;29.02
65687;HTU21D;52406;45.078;38.986;2022-07-29T11:32:36;42.88;28.42
65687;HTU21D;52406;45.078;38.986;2022-07-29T11:37:43;43.09;28.49
65687;HTU21D;52406;45.078;38.986;2022-07-29T11:40:12;42.94;28.45
65687;HTU21D;52406;45.078;38.986;2022-07-29T11:42:41;42.59;28.90
65687;HTU21D;52406;45.078;38.986;2022-07-29T11:47:39;42.41;29.04
65687;HTU21D;52406;45.078;38.986;2022-07-29T11:50:16;42.46;28.93
65687;HTU21D;52406;45.078;38.986;2022-07-29T11:52:46;42.25;28.80
65687;HTU21D;52406;45.078;38.986;2022-07-29T11:55:18;42.30;29.10
65687;HTU21D;52406;45.078;38.986;2022-07-29T11:57:55;42.46;28.96
65687;HTU21D;52406;45.078;38.986;2022-07-29T12:00:24;42.54;29.03
65687;HTU21D;52406;45.078;38.986;2022-07-29T12:02:52;42.57;28.78
65687;HTU21D;52406;45.078;38.986;2022-07-29T12:05:29;42.67;28.78
65687;HTU21D;52406;45.078;38.986;2022-07-29T12:08:07;42.62;28.93
65687;HTU21D;52406;45.078;38.986;2022-07-29T12:10:35;42.29;29.17
65687;HTU21D;52406;45.078;38.986;2022-07-29T12:13:01;42.10;29.29
65687;HTU21D;52406;45.078;38.986;2022-07-29T12:15:33;41.93;29.36
65687;HTU21D;52406;45.078;38.986;2022-07-29T12:18:16;41.92;29.42
65687;HTU21D;52406;45.078;38.986;2022-07-29T12:20:43;42.21;29.52
65687;HTU21D;52406;45.078;38.986;2022-07-29T12:23:10;42.08;29.29
65687;HTU21D;52406;45.078;38.986;2022-07-29T12:25:42;42.07;29.08
65687;HTU21D;52406;45.078;38.986;2022-07-29T12:28:12;42.25;29.05
65687;HTU21D;52406;45.078;38.986;2022-07-29T12:30:46;42.44;28.96
65687;HTU21D;52406;45.078;38.986;2022-07-29T12:35:49;42.36;28.96
65687;HTU21D;52406;45.078;38.986;2022-07-29T12:38:16;41.96;29.03
65687;HTU21D;52406;45.078;38.986;2022-07-29T12:40:45;41.26;29.87
65687;HTU21D;52406;45.078;38.986;2022-07-29T12:43:19;40.40;30.54
65687;HTU21D;52406;45.078;38.986;2022-07-29T12:45:49;39.53;31.43
65687;HTU21D;52406;45.078;38.986;2022-07-29T12:48:17;38.96;32.10
65687;HTU21D;52406;45.078;38.986;2022-07-29T12:50:56;38.24;32.73
65687;HTU21D;52406;45.078;38.986;2022-07-29T12:53:23;37.62;33.53
65687;HTU21D;52406;45.078;38.986;2022-07-29T12:55:51;37.30;33.90
65687;HTU21D;52406;45.078;38.986;2022-07-29T12:58:36;37.77;33.71
65687;HTU21D;52406;45.078;38.986;2022-07-29T13:01:09;38.46;32.77
65687;HTU21D;52406;45.078;38.986;2022-07-29T13:03:52;39.12;32.19
65687;HTU21D;52406;45.078;38.986;2022-07-29T13:09:19;39.33;31.70
65687;HTU21D;52406;45.078;38.986;2022-07-29T13:11:49;39.52;31.74
65687;HTU21D;52406;45.078;38.986;2022-07-29T13:14:35;39.18;32.01
65687;HTU21D;52406;45.078;38.986;2022-07-29T13:17:05;38.91;32.30
65687;HTU21D;52406;45.078;38.986;2022-07-29T13:19:47;38.89;32.40
65687;HTU21D;52406;45.078;38.986;2022-07-29T13:22:19;38.92;32.22
65687;HTU21D;52406;45.078;38.986;2022-07-29T13:24:58;39.05;32.04
65687;HTU21D;52406;45.078;38.986;2022-07-29T13:27:31;39.20;31.76
65687;HTU21D;52406;45.078;38.986;2022-07-29T13:30:04;39.34;31.89
65687;HTU21D;52406;45.078;38.986;2022-07-29T13:32:32;39.39;31.87
65687;HTU21D;52406;45.078;38.986;2022-07-29T13:35:05;39.30;31.76
65687;HTU21D;52406;45.078;38.986;2022-07-29T13:37:36;39.09;31.83
65687;HTU21D;52406;45.078;38.986;2022-07-29T13:40:08;38.89;32.02
65687;HTU21D;52406;45.078;38.986;2022-07-29T13:42:36;38.75;32.20
65687;HTU21D;52406;45.078;38.986;2022-07-29T13:45:08;38.63;32.31
65687;HTU21D;52406;45.078;38.986;2022-07-29T13:47:35;38.45;32.29
65687;HTU21D;52406;45.078;38.986;2022-07-29T13:50:05;38.20;32.49
65687;HTU21D;52406;45.078;38.986;2022-07-29T13:52:33;38.11;32.62
65687;HTU21D;52406;45.078;38.986;2022-07-29T13:55:01;37.89;32.65
65687;HTU21D;52406;45.078;38.986;2022-07-29T13:57:31;37.64;33.04
65687;HTU21D;52406;45.078;38.986;2022-07-29T13:59:58;37.57;33.15
65687;HTU21D;52406;45.078;38.986;2022-07-29T14:02:25;37.44;33.38
65687;HTU21D;52406;45.078;38.986;2022-07-29T14:04:53;37.42;33.47
65687;HTU21D;52406;45.078;38.986;2022-07-29T14:07:21;37.35;33.26
65687;HTU21D;52406;45.078;38.986;2022-07-29T14:09:48;37.34;33.43
65687;HTU21D;52406;45.078;38.986;2022-07-29T14:12:15;37.31;33.35
65687;HTU21D;52406;45.078;38.986;2022-07-29T14:14:41;37.13;33.42
65687;HTU21D;52406;45.078;38.986;2022-07-29T14:17:08;36.90;33.60
65687;HTU21D;52406;45.078;38.986;2022-07-29T14:19:35;36.84;33.72
65687;HTU21D;52406;45.078;38.986;2022-07-29T14:22:07;36.72;33.79
65687;HTU21D;52406;45.078;38.986;2022-07-29T14:24:37;36.59;33.83
65687;HTU21D;52406;45.078;38.986;2022-07-29T14:27:06;36.47;33.82
65687;HTU21D;52406;45.078;38.986;2022-07-29T14:29:36;36.42;33.89
65687;HTU21D;52406;45.078;38.986;2022-07-29T14:32:06;36.42;33.86
65687;HTU21D;52406;45.078;38.986;2022-07-29T14:34:35;36.32;33.94
65687;HTU21D;52406;45.078;38.986;2022-07-29T14:37:05;36.17;34.00
65687;HTU21D;52406;45.078;38.986;2022-07-29T14:39:34;35.99;34.25
65687;HTU21D;52406;45.078;38.986;2022-07-29T14:42:02;35.94;34.34
65687;HTU21D;52406;45.078;38.986;2022-07-29T14:44:29;35.80;34.45
65687;HTU21D;52406;45.078;38.986;2022-07-29T14:46:58;35.71;34.65
65687;HTU21D;52406;45.078;38.986;2022-07-29T14:49:28;35.62;34.76
65687;HTU21D;52406;45.078;38.986;2022-07-29T14:51:55;35.53;34.81
65687;HTU21D;52406;45.078;38.986;2022-07-29T14:54:22;35.35;35.00
65687;HTU21D;52406;45.078;38.986;2022-07-29T14:56:49;35.15;35.31
65687;HTU21D;52406;45.078;38.986;2022-07-29T14:59:17;35.03;35.57
65687;HTU21D;52406;45.078;38.986;2022-07-29T15:01:48;34.94;35.65
65687;HTU21D;52406;45.078;38.986;2022-07-29T15:04:19;34.85;35.73
65687;HTU21D;52406;45.078;38.986;2022-07-29T15:06:45;34.75;35.94
65687;HTU21D;52406;45.078;38.986;2022-07-29T15:09:12;34.63;36.34
65687;HTU21D;52406;45.078;38.986;2022-07-29T15:11:39;34.53;36.43
65687;HTU21D;52406;45.078;38.986;2022-07-29T15:14:05;34.47;36.53
65687;HTU21D;52406;45.078;38.986;2022-07-29T15:16:34;34.34;36.56
65687;HTU21D;52406;45.078;38.986;2022-07-29T15:19:01;34.15;36.79
65687;HTU21D;52406;45.078;38.986;2022-07-29T15:21:29;33.95;37.05
65687;HTU21D;52406;45.078;38.986;2022-07-29T15:23:56;33.81;37.27
65687;HTU21D;52406;45.078;38.986;2022-07-29T15:26:22;33.72;37.61
65687;HTU21D;52406;45.078;38.986;2022-07-29T15:28:49;33.58;37.69
65687;HTU21D;52406;45.078;38.986;2022-07-29T15:31:16;33.45;38.15
65687;HTU21D;52406;45.078;38.986;2022-07-29T15:33:44;33.32;38.52
65687;HTU21D;52406;45.078;38.986;2022-07-29T15:36:12;33.19;38.55
65687;HTU21D;52406;45.078;38.986;2022-07-29T15:38:41;33.06;38.92
65687;HTU21D;52406;45.078;38.986;2022-07-29T15:41:08;32.92;39.32
65687;HTU21D;52406;45.078;38.986;2022-07-29T15:43:35;32.77;39.33
65687;HTU21D;52406;45.078;38.986;2022-07-29T15:46:02;32.63;39.46
65687;HTU21D;52406;45.078;38.986;2022-07-29T15:48:47;32.49;39.58
65687;HTU21D;52406;45.078;38.986;2022-07-29T15:51:14;32.35;39.67
65687;HTU21D;52406;45.078;38.986;2022-07-29T15:53:41;32.23;39.75
65687;HTU21D;52406;45.078;38.986;2022-07-29T15:56:08;32.07;39.92
65687;HTU21D;52406;45.078;38.986;2022-07-29T15:58:39;31.92;40.33
65687;HTU21D;52406;45.078;38.986;2022-07-29T16:01:05;31.78;40.49
65687;HTU21D;52406;45.078;38.986;2022-07-29T16:03:32;31.65;40.75
65687;HTU21D;52406;45.078;38.986;2022-07-29T16:05:59;31.51;40.81
65687;HTU21D;52406;45.078;38.986;2022-07-29T16:08:26;31.41;40.91
65687;HTU21D;52406;45.078;38.986;2022-07-29T16:10:53;31.29;41.15